sensor_id;sensor_type;location;lat;lon;timestamp;P1;durP1;ratioP1;P2;durP2;ratioP2
13439;SDS011;6792;57.698;11.946;2023-04-01T00:01:42;1.10;;;0.83;;
13439;SDS011;6792;57.698;11.946;2023-04-01T00:04:12;1.63;;;1.07;;
13439;SDS011;6792;57.698;11.946;2023-04-01T00:06:42;1.63;;;1.20;;
13439;SDS011;6792;57.698;11.946;2023-04-01T00:09:11;2.70;;;1.10;;
13439;SDS011;6792;57.698;11.946;2023-04-01T00:11:40;2.10;;;1.10;;
13439;SDS011;6792;57.698;11.946;2023-04-01T00:14:11;1.97;;;1.20;;
13439;SDS011;6792;57.698;11.946;2023-04-01T00:16:40;3.80;;;1.20;;
13439;SDS011;6792;57.698;11.946;2023-04-01T00:19:09;1.53;;;1.43;;
13439;SDS011;6792;57.698;11.946;2023-04-01T00:21:38;2.23;;;1.13;;
13439;SDS011;6792;57.698;11.946;2023-04-01T00:24:08;1.20;;;1.10;;
13439;SDS011;6792;57.698;11.946;2023-04-01T00:26:37;2.37;;;1.20;;
13439;SDS011;6792;57.698;11.946;2023-04-01T00:29:08;2.30;;;1.30;;
13439;SDS011;6792;57.698;11.946;2023-04-01T00:31:37;1.40;;;1.00;;
13439;SDS011;6792;57.698;11.946;2023-04-01T00:34:06;3.83;;;1.33;;
13439;SDS011;6792;57.698;11.946;2023-04-01T00:36:36;1.10;;;1.00;;
13439;SDS011;6792;57.698;11.946;2023-04-01T00:39:05;2.13;;;1.33;;
13439;SDS011;6792;57.698;11.946;2023-04-01T00:41:34;1.93;;;1.20;;
13439;SDS011;6792;57.698;11.946;2023-04-01T00:44:17;2.93;;;1.50;;
13439;SDS011;6792;57.698;11.946;2023-04-01T00:46:49;2.47;;;1.17;;
13439;SDS011;6792;57.698;11.946;2023-04-01T00:49:20;1.70;;;1.17;;
13439;SDS011;6792;57.698;11.946;2023-04-01T00:51:51;3.10;;;1.10;;
13439;SDS011;6792;57.698;11.946;2023-04-01T00:54:24;2.00;;;1.10;;
13439;SDS011;6792;57.698;11.946;2023-04-01T00:56:55;1.53;;;1.17;;
13439;SDS011;6792;57.698;11.946;2023-04-01T00:59:30;1.50;;;0.93;;
13439;SDS011;6792;57.698;11.946;2023-04-01T01:02:02;2.33;;;1.20;;
13439;SDS011;6792;57.698;11.946;2023-04-01T01:04:34;3.60;;;1.33;;
13439;SDS011;6792;57.698;11.946;2023-04-01T01:07:07;1.87;;;1.27;;
13439;SDS011;6792;57.698;11.946;2023-04-01T01:09:44;3.30;;;1.30;;
13439;SDS011;6792;57.698;11.946;2023-04-01T01:12:17;1.30;;;1.07;;
13439;SDS011;6792;57.698;11.946;2023-04-01T01:14:51;1.10;;;1.00;;
13439;SDS011;6792;57.698;11.946;2023-04-01T01:17:26;2.57;;;1.10;;
13439;SDS011;6792;57.698;11.946;2023-04-01T01:20:14;1.40;;;1.30;;
13439;SDS011;6792;57.698;11.946;2023-04-01T01:26:11;2.57;;;1.20;;
13439;SDS011;6792;57.698;11.946;2023-04-01T01:28:53;2.90;;;1.20;;
13439;SDS011;6792;57.698;11.946;2023-04-01T01:31:24;3.07;;;1.17;;
13439;SDS011;6792;57.698;11.946;2023-04-01T01:34:00;1.80;;;1.10;;
13439;SDS011;6792;57.698;11.946;2023-04-01T01:36:33;4.73;;;0.97;;
13439;SDS011;6792;57.698;11.946;2023-04-01T01:39:05;1.27;;;1.17;;
13439;SDS011;6792;57.698;11.946;2023-04-01T01:41:37;5.47;;;1.10;;
13439;SDS011;6792;57.698;11.946;2023-04-01T01:44:09;1.20;;;1.10;;
13439;SDS011;6792;57.698;11.946;2023-04-01T01:46:41;2.03;;;1.40;;
13439;SDS011;6792;57.698;11.946;2023-04-01T01:49:12;1.80;;;1.00;;
13439;SDS011;6792;57.698;11.946;2023-04-01T01:51:44;1.47;;;1.10;;
13439;SDS011;6792;57.698;11.946;2023-04-01T01:54:14;2.17;;;1.27;;
13439;SDS011;6792;57.698;11.946;2023-04-01T01:56:46;1.80;;;0.87;;
13439;SDS011;6792;57.698;11.946;2023-04-01T01:59:18;8.43;;;1.37;;
13439;SDS011;6792;57.698;11.946;2023-04-01T02:01:50;1.77;;;1.20;;
13439;SDS011;6792;57.698;11.946;2023-04-01T02:04:21;1.53;;;1.13;;
13439;SDS011;6792;57.698;11.946;2023-04-01T02:06:53;4.90;;;1.70;;
13439;SDS011;6792;57.698;11.946;2023-04-01T02:09:24;2.77;;;1.50;;
13439;SDS011;6792;57.698;11.946;2023-04-01T02:11:56;1.03;;;0.90;;
13439;SDS011;6792;57.698;11.946;2023-04-01T02:14:28;3.40;;;1.20;;
13439;SDS011;6792;57.698;11.946;2023-04-01T02:17:00;2.27;;;1.40;;
13439;SDS011;6792;57.698;11.946;2023-04-01T02:19:32;2.07;;;1.07;;
13439;SDS011;6792;57.698;11.946;2023-04-01T02:22:04;2.03;;;1.30;;
13439;SDS011;6792;57.698;11.946;2023-04-01T02:24:36;1.30;;;1.17;;
13439;SDS011;6792;57.698;11.946;2023-04-01T02:27:07;1.77;;;1.20;;
13439;SDS011;6792;57.698;11.946;2023-04-01T02:29:38;2.10;;;1.40;;
13439;SDS011;6792;57.698;11.946;2023-04-01T02:32:09;3.03;;;1.30;;
13439;SDS011;6792;57.698;11.946;2023-04-01T02:34:41;1.60;;;1.20;;
13439;SDS011;6792;57.698;11.946;2023-04-01T02:37:11;1.00;;;1.00;;
13439;SDS011;6792;57.698;11.946;2023-04-01T02:39:40;3.90;;;1.53;;
13439;SDS011;6792;57.698;11.946;2023-04-01T02:42:10;1.73;;;1.07;;
13439;SDS011;6792;57.698;11.946;2023-04-01T02:44:40;3.80;;;1.30;;
13439;SDS011;6792;57.698;11.946;2023-04-01T02:47:10;1.40;;;1.00;;
13439;SDS011;6792;57.698;11.946;2023-04-01T02:49:39;1.37;;;1.20;;
13439;SDS011;6792;57.698;11.946;2023-04-01T02:52:10;1.07;;;0.70;;
13439;SDS011;6792;57.698;11.946;2023-04-01T02:54:40;1.83;;;0.90;;
13439;SDS011;6792;57.698;11.946;2023-04-01T02:57:09;6.20;;;1.30;;
13439;SDS011;6792;57.698;11.946;2023-04-01T02:59:38;0.80;;;0.80;;
13439;SDS011;6792;57.698;11.946;2023-04-01T03:02:07;3.43;;;1.07;;
13439;SDS011;6792;57.698;11.946;2023-04-01T03:04:37;1.77;;;0.80;;
13439;SDS011;6792;57.698;11.946;2023-04-01T03:07:06;4.07;;;0.83;;
13439;SDS011;6792;57.698;11.946;2023-04-01T03:09:36;1.40;;;1.07;;
13439;SDS011;6792;57.698;11.946;2023-04-01T03:12:06;1.47;;;0.97;;
13439;SDS011;6792;57.698;11.946;2023-04-01T03:14:36;1.90;;;1.00;;
13439;SDS011;6792;57.698;11.946;2023-04-01T03:17:05;0.80;;;0.70;;
13439;SDS011;6792;57.698;11.946;2023-04-01T03:19:34;2.33;;;1.20;;
13439;SDS011;6792;57.698;11.946;2023-04-01T03:22:03;3.27;;;1.03;;
13439;SDS011;6792;57.698;11.946;2023-04-01T03:24:32;1.37;;;0.80;;
13439;SDS011;6792;57.698;11.946;2023-04-01T03:27:02;1.63;;;0.93;;
13439;SDS011;6792;57.698;11.946;2023-04-01T03:29:31;1.07;;;0.90;;
13439;SDS011;6792;57.698;11.946;2023-04-01T03:32:00;1.10;;;0.83;;
13439;SDS011;6792;57.698;11.946;2023-04-01T03:34:30;1.73;;;0.80;;
13439;SDS011;6792;57.698;11.946;2023-04-01T03:36:59;1.47;;;1.00;;
13439;SDS011;6792;57.698;11.946;2023-04-01T03:39:28;2.30;;;1.30;;
13439;SDS011;6792;57.698;11.946;2023-04-01T03:41:58;1.30;;;0.80;;
13439;SDS011;6792;57.698;11.946;2023-04-01T03:44:30;3.10;;;1.00;;
13439;SDS011;6792;57.698;11.946;2023-04-01T03:47:00;1.47;;;1.00;;
13439;SDS011;6792;57.698;11.946;2023-04-01T03:49:29;2.20;;;1.10;;
13439;SDS011;6792;57.698;11.946;2023-04-01T03:51:59;3.10;;;1.40;;
13439;SDS011;6792;57.698;11.946;2023-04-01T03:54:28;1.43;;;1.20;;
13439;SDS011;6792;57.698;11.946;2023-04-01T03:56:58;2.27;;;1.10;;
13439;SDS011;6792;57.698;11.946;2023-04-01T03:59:28;2.00;;;1.23;;
13439;SDS011;6792;57.698;11.946;2023-04-01T04:01:57;1.70;;;1.20;;
13439;SDS011;6792;57.698;11.946;2023-04-01T04:04:27;1.57;;;1.07;;
13439;SDS011;6792;57.698;11.946;2023-04-01T04:06:56;4.47;;;1.37;;
13439;SDS011;6792;57.698;11.946;2023-04-01T04:09:25;1.97;;;0.73;;
13439;SDS011;6792;57.698;11.946;2023-04-01T04:11:55;2.50;;;0.90;;
13439;SDS011;6792;57.698;11.946;2023-04-01T04:14:24;2.10;;;1.00;;
13439;SDS011;6792;57.698;11.946;2023-04-01T04:16:54;2.67;;;1.20;;
13439;SDS011;6792;57.698;11.946;2023-04-01T04:19:23;1.57;;;1.10;;
13439;SDS011;6792;57.698;11.946;2023-04-01T04:21:53;1.73;;;1.03;;
13439;SDS011;6792;57.698;11.946;2023-04-01T04:24:22;1.07;;;0.90;;
13439;SDS011;6792;57.698;11.946;2023-04-01T04:26:51;1.90;;;1.17;;
13439;SDS011;6792;57.698;11.946;2023-04-01T04:29:20;1.70;;;1.03;;
13439;SDS011;6792;57.698;11.946;2023-04-01T04:31:50;3.47;;;1.20;;
13439;SDS011;6792;57.698;11.946;2023-04-01T04:34:19;2.37;;;1.03;;
13439;SDS011;6792;57.698;11.946;2023-04-01T04:36:49;3.20;;;1.37;;
13439;SDS011;6792;57.698;11.946;2023-04-01T04:39:18;2.67;;;1.63;;
13439;SDS011;6792;57.698;11.946;2023-04-01T04:41:47;3.23;;;1.33;;
13439;SDS011;6792;57.698;11.946;2023-04-01T04:44:18;2.90;;;1.00;;
13439;SDS011;6792;57.698;11.946;2023-04-01T04:46:48;2.07;;;1.23;;
13439;SDS011;6792;57.698;11.946;2023-04-01T04:49:17;4.30;;;1.00;;
13439;SDS011;6792;57.698;11.946;2023-04-01T04:51:46;2.50;;;1.07;;
13439;SDS011;6792;57.698;11.946;2023-04-01T04:54:16;1.50;;;0.90;;
13439;SDS011;6792;57.698;11.946;2023-04-01T04:56:45;3.30;;;1.40;;
13439;SDS011;6792;57.698;11.946;2023-04-01T04:59:14;1.90;;;1.47;;
13439;SDS011;6792;57.698;11.946;2023-04-01T05:01:43;2.93;;;1.40;;
13439;SDS011;6792;57.698;11.946;2023-04-01T05:04:13;4.17;;;2.13;;
13439;SDS011;6792;57.698;11.946;2023-04-01T05:06:43;3.70;;;2.10;;
13439;SDS011;6792;57.698;11.946;2023-04-01T05:09:12;3.63;;;1.70;;
13439;SDS011;6792;57.698;11.946;2023-04-01T05:11:42;4.33;;;1.80;;
13439;SDS011;6792;57.698;11.946;2023-04-01T05:14:15;3.07;;;1.83;;
13439;SDS011;6792;57.698;11.946;2023-04-01T05:16:44;4.33;;;2.20;;
13439;SDS011;6792;57.698;11.946;2023-04-01T05:19:13;5.63;;;1.80;;
13439;SDS011;6792;57.698;11.946;2023-04-01T05:21:46;4.63;;;2.20;;
13439;SDS011;6792;57.698;11.946;2023-04-01T05:24:15;4.53;;;1.90;;
13439;SDS011;6792;57.698;11.946;2023-04-01T05:26:44;2.37;;;1.47;;
13439;SDS011;6792;57.698;11.946;2023-04-01T05:29:13;2.57;;;1.70;;
13439;SDS011;6792;57.698;11.946;2023-04-01T05:31:42;3.17;;;1.80;;
13439;SDS011;6792;57.698;11.946;2023-04-01T05:34:12;3.10;;;1.97;;
13439;SDS011;6792;57.698;11.946;2023-04-01T05:36:42;4.67;;;1.90;;
13439;SDS011;6792;57.698;11.946;2023-04-01T05:39:12;4.57;;;1.80;;
13439;SDS011;6792;57.698;11.946;2023-04-01T05:41:41;4.90;;;2.00;;
13439;SDS011;6792;57.698;11.946;2023-04-01T05:44:10;4.03;;;1.77;;
13439;SDS011;6792;57.698;11.946;2023-04-01T05:46:40;2.57;;;1.63;;
13439;SDS011;6792;57.698;11.946;2023-04-01T05:49:10;2.00;;;1.33;;
13439;SDS011;6792;57.698;11.946;2023-04-01T05:51:39;4.07;;;1.27;;
13439;SDS011;6792;57.698;11.946;2023-04-01T05:54:09;2.07;;;1.27;;
13439;SDS011;6792;57.698;11.946;2023-04-01T05:56:38;1.50;;;0.90;;
13439;SDS011;6792;57.698;11.946;2023-04-01T05:59:09;2.77;;;0.97;;
13439;SDS011;6792;57.698;11.946;2023-04-01T06:01:39;2.70;;;0.90;;
13439;SDS011;6792;57.698;11.946;2023-04-01T06:04:10;4.03;;;1.60;;
13439;SDS011;6792;57.698;11.946;2023-04-01T06:06:42;4.77;;;1.30;;
13439;SDS011;6792;57.698;11.946;2023-04-01T06:09:14;5.33;;;1.23;;
13439;SDS011;6792;57.698;11.946;2023-04-01T06:14:51;2.83;;;1.07;;
13439;SDS011;6792;57.698;11.946;2023-04-01T06:17:24;1.73;;;0.80;;
13439;SDS011;6792;57.698;11.946;2023-04-01T06:19:57;4.57;;;1.30;;
13439;SDS011;6792;57.698;11.946;2023-04-01T06:22:33;2.10;;;1.00;;
13439;SDS011;6792;57.698;11.946;2023-04-01T06:31:32;0.90;;;0.60;;
13439;SDS011;6792;57.698;11.946;2023-04-01T06:34:12;2.17;;;0.93;;
13439;SDS011;6792;57.698;11.946;2023-04-01T06:37:03;5.90;;;0.80;;
13439;SDS011;6792;57.698;11.946;2023-04-01T06:39:44;4.13;;;0.70;;
13439;SDS011;6792;57.698;11.946;2023-04-01T06:42:34;2.50;;;0.70;;
13439;SDS011;6792;57.698;11.946;2023-04-01T06:45:13;1.07;;;0.73;;
13439;SDS011;6792;57.698;11.946;2023-04-01T06:47:50;1.43;;;0.70;;
13439;SDS011;6792;57.698;11.946;2023-04-01T06:50:28;2.10;;;0.60;;
13439;SDS011;6792;57.698;11.946;2023-04-01T06:53:02;1.80;;;0.73;;
13439;SDS011;6792;57.698;11.946;2023-04-01T06:55:34;3.00;;;0.60;;
13439;SDS011;6792;57.698;11.946;2023-04-01T06:58:10;1.43;;;0.50;;
13439;SDS011;6792;57.698;11.946;2023-04-01T07:00:41;0.97;;;0.80;;
13439;SDS011;6792;57.698;11.946;2023-04-01T07:03:16;0.57;;;0.50;;
13439;SDS011;6792;57.698;11.946;2023-04-01T07:05:47;0.53;;;0.30;;
13439;SDS011;6792;57.698;11.946;2023-04-01T07:08:18;2.80;;;0.80;;
13439;SDS011;6792;57.698;11.946;2023-04-01T07:10:51;1.10;;;0.50;;
13439;SDS011;6792;57.698;11.946;2023-04-01T07:13:24;3.87;;;0.73;;
13439;SDS011;6792;57.698;11.946;2023-04-01T07:15:57;1.50;;;0.60;;
13439;SDS011;6792;57.698;11.946;2023-04-01T07:18:32;0.87;;;0.70;;
13439;SDS011;6792;57.698;11.946;2023-04-01T07:21:05;4.93;;;1.03;;
13439;SDS011;6792;57.698;11.946;2023-04-01T07:23:38;2.27;;;0.70;;
13439;SDS011;6792;57.698;11.946;2023-04-01T07:26:14;1.33;;;0.80;;
13439;SDS011;6792;57.698;11.946;2023-04-01T07:28:44;1.83;;;0.67;;
13439;SDS011;6792;57.698;11.946;2023-04-01T07:31:18;4.63;;;1.00;;
13439;SDS011;6792;57.698;11.946;2023-04-01T07:34:12;4.40;;;1.10;;
13439;SDS011;6792;57.698;11.946;2023-04-01T07:36:47;1.80;;;0.87;;
13439;SDS011;6792;57.698;11.946;2023-04-01T07:39:23;2.73;;;0.80;;
13439;SDS011;6792;57.698;11.946;2023-04-01T07:41:57;5.93;;;0.80;;
13439;SDS011;6792;57.698;11.946;2023-04-01T07:44:31;2.13;;;0.70;;
13439;SDS011;6792;57.698;11.946;2023-04-01T07:47:06;3.83;;;1.10;;
13439;SDS011;6792;57.698;11.946;2023-04-01T07:49:45;1.57;;;0.63;;
13439;SDS011;6792;57.698;11.946;2023-04-01T07:52:20;1.40;;;0.63;;
13439;SDS011;6792;57.698;11.946;2023-04-01T07:54:53;3.07;;;0.60;;
13439;SDS011;6792;57.698;11.946;2023-04-01T07:57:27;1.13;;;0.50;;
13439;SDS011;6792;57.698;11.946;2023-04-01T07:59:59;0.93;;;0.40;;
13439;SDS011;6792;57.698;11.946;2023-04-01T08:02:35;0.83;;;0.40;;
13439;SDS011;6792;57.698;11.946;2023-04-01T08:05:11;0.53;;;0.40;;
13439;SDS011;6792;57.698;11.946;2023-04-01T08:07:45;2.63;;;0.60;;
13439;SDS011;6792;57.698;11.946;2023-04-01T08:10:19;1.37;;;0.57;;
13439;SDS011;6792;57.698;11.946;2023-04-01T08:12:56;0.53;;;0.27;;
13439;SDS011;6792;57.698;11.946;2023-04-01T08:15:28;1.00;;;0.40;;
13439;SDS011;6792;57.698;11.946;2023-04-01T08:18:08;1.67;;;0.60;;
13439;SDS011;6792;57.698;11.946;2023-04-01T08:20:45;2.53;;;0.50;;
13439;SDS011;6792;57.698;11.946;2023-04-01T08:23:18;2.87;;;1.40;;
13439;SDS011;6792;57.698;11.946;2023-04-01T08:25:52;1.40;;;0.67;;
13439;SDS011;6792;57.698;11.946;2023-04-01T08:28:25;3.97;;;0.83;;
13439;SDS011;6792;57.698;11.946;2023-04-01T08:31:08;3.10;;;0.43;;
13439;SDS011;6792;57.698;11.946;2023-04-01T08:33:39;2.77;;;0.60;;
13439;SDS011;6792;57.698;11.946;2023-04-01T08:36:12;1.93;;;0.50;;
13439;SDS011;6792;57.698;11.946;2023-04-01T08:38:43;0.50;;;0.37;;
13439;SDS011;6792;57.698;11.946;2023-04-01T08:41:22;5.23;;;0.70;;
13439;SDS011;6792;57.698;11.946;2023-04-01T08:44:09;4.03;;;1.17;;
13439;SDS011;6792;57.698;11.946;2023-04-01T08:46:58;0.70;;;0.53;;
13439;SDS011;6792;57.698;11.946;2023-04-01T08:49:44;3.83;;;1.07;;
13439;SDS011;6792;57.698;11.946;2023-04-01T08:52:31;1.57;;;0.70;;
13439;SDS011;6792;57.698;11.946;2023-04-01T08:58:25;2.60;;;0.70;;
13439;SDS011;6792;57.698;11.946;2023-04-01T09:01:09;1.43;;;0.80;;
13439;SDS011;6792;57.698;11.946;2023-04-01T09:03:52;1.00;;;0.60;;
13439;SDS011;6792;57.698;11.946;2023-04-01T09:06:48;6.30;;;1.40;;
13439;SDS011;6792;57.698;11.946;2023-04-01T09:09:32;0.33;;;0.33;;
13439;SDS011;6792;57.698;11.946;2023-04-01T09:12:28;2.03;;;0.70;;
13439;SDS011;6792;57.698;11.946;2023-04-01T09:15:27;0.90;;;0.57;;
13439;SDS011;6792;57.698;11.946;2023-04-01T09:18:13;1.40;;;0.30;;
13439;SDS011;6792;57.698;11.946;2023-04-01T09:20:56;1.47;;;0.30;;
13439;SDS011;6792;57.698;11.946;2023-04-01T09:23:55;2.00;;;0.40;;
13439;SDS011;6792;57.698;11.946;2023-04-01T09:26:44;2.27;;;0.40;;
13439;SDS011;6792;57.698;11.946;2023-04-01T09:29:26;0.87;;;0.40;;
13439;SDS011;6792;57.698;11.946;2023-04-01T09:32:11;0.67;;;0.50;;
13439;SDS011;6792;57.698;11.946;2023-04-01T09:34:53;0.67;;;0.50;;
13439;SDS011;6792;57.698;11.946;2023-04-01T09:37:29;1.33;;;0.63;;
13439;SDS011;6792;57.698;11.946;2023-04-01T09:40:16;1.43;;;0.63;;
13439;SDS011;6792;57.698;11.946;2023-04-01T09:42:51;1.50;;;0.67;;
13439;SDS011;6792;57.698;11.946;2023-04-01T09:45:33;0.83;;;0.77;;
13439;SDS011;6792;57.698;11.946;2023-04-01T09:48:11;3.10;;;0.60;;
13439;SDS011;6792;57.698;11.946;2023-04-01T09:50:47;0.40;;;0.40;;
13439;SDS011;6792;57.698;11.946;2023-04-01T09:53:24;1.60;;;0.53;;
13439;SDS011;6792;57.698;11.946;2023-04-01T10:02:15;2.20;;;0.43;;
13439;SDS011;6792;57.698;11.946;2023-04-01T10:12:02;0.97;;;0.33;;
13439;SDS011;6792;57.698;11.946;2023-04-01T10:14:58;0.70;;;0.50;;
13439;SDS011;6792;57.698;11.946;2023-04-01T10:20:57;1.23;;;0.50;;
13439;SDS011;6792;57.698;11.946;2023-04-01T10:27:07;1.00;;;0.53;;
13439;SDS011;6792;57.698;11.946;2023-04-01T10:39:34;1.37;;;0.43;;
13439;SDS011;6792;57.698;11.946;2023-04-01T10:42:48;0.60;;;0.30;;
13439;SDS011;6792;57.698;11.946;2023-04-01T10:46:00;0.80;;;0.43;;
13439;SDS011;6792;57.698;11.946;2023-04-01T10:48:58;2.10;;;0.73;;
13439;SDS011;6792;57.698;11.946;2023-04-01T10:51:54;0.30;;;0.23;;
13439;SDS011;6792;57.698;11.946;2023-04-01T10:57:36;0.73;;;0.50;;
13439;SDS011;6792;57.698;11.946;2023-04-01T11:04:01;1.97;;;0.50;;
13439;SDS011;6792;57.698;11.946;2023-04-01T11:06:43;1.00;;;0.23;;
13439;SDS011;6792;57.698;11.946;2023-04-01T11:12:51;0.93;;;0.30;;
13439;SDS011;6792;57.698;11.946;2023-04-01T11:15:54;0.97;;;0.40;;
13439;SDS011;6792;57.698;11.946;2023-04-01T11:18:53;0.60;;;0.40;;
13439;SDS011;6792;57.698;11.946;2023-04-01T11:21:37;0.70;;;0.43;;
13439;SDS011;6792;57.698;11.946;2023-04-01T11:24:30;0.57;;;0.40;;
13439;SDS011;6792;57.698;11.946;2023-04-01T11:27:09;0.57;;;0.40;;
13439;SDS011;6792;57.698;11.946;2023-04-01T11:29:51;0.40;;;0.30;;
13439;SDS011;6792;57.698;11.946;2023-04-01T11:32:29;3.20;;;0.70;;
13439;SDS011;6792;57.698;11.946;2023-04-01T11:35:16;2.00;;;0.83;;
13439;SDS011;6792;57.698;11.946;2023-04-01T11:37:50;0.60;;;0.40;;
13439;SDS011;6792;57.698;11.946;2023-04-01T11:40:23;1.87;;;0.40;;
13439;SDS011;6792;57.698;11.946;2023-04-01T11:42:59;2.33;;;0.53;;
13439;SDS011;6792;57.698;11.946;2023-04-01T11:45:34;4.07;;;1.00;;
13439;SDS011;6792;57.698;11.946;2023-04-01T11:48:12;0.83;;;0.57;;
13439;SDS011;6792;57.698;11.946;2023-04-01T11:50:55;1.13;;;0.60;;
13439;SDS011;6792;57.698;11.946;2023-04-01T11:53:42;4.07;;;0.50;;
13439;SDS011;6792;57.698;11.946;2023-04-01T11:56:17;1.57;;;0.93;;
13439;SDS011;6792;57.698;11.946;2023-04-01T11:59:00;1.73;;;0.87;;
13439;SDS011;6792;57.698;11.946;2023-04-01T12:01:43;3.30;;;0.50;;
13439;SDS011;6792;57.698;11.946;2023-04-01T12:04:27;0.50;;;0.43;;
13439;SDS011;6792;57.698;11.946;2023-04-01T12:07:21;3.00;;;0.47;;
13439;SDS011;6792;57.698;11.946;2023-04-01T12:09:55;1.93;;;0.47;;
13439;SDS011;6792;57.698;11.946;2023-04-01T12:12:32;0.40;;;0.40;;
13439;SDS011;6792;57.698;11.946;2023-04-01T12:15:10;2.97;;;0.60;;
13439;SDS011;6792;57.698;11.946;2023-04-01T12:17:46;0.77;;;0.57;;
13439;SDS011;6792;57.698;11.946;2023-04-01T12:20:30;1.97;;;0.60;;
13439;SDS011;6792;57.698;11.946;2023-04-01T12:23:08;0.60;;;0.40;;
13439;SDS011;6792;57.698;11.946;2023-04-01T12:25:51;4.40;;;0.60;;
13439;SDS011;6792;57.698;11.946;2023-04-01T12:28:52;1.43;;;0.53;;
13439;SDS011;6792;57.698;11.946;2023-04-01T12:31:29;1.43;;;0.43;;
13439;SDS011;6792;57.698;11.946;2023-04-01T12:37:05;0.87;;;0.40;;
13439;SDS011;6792;57.698;11.946;2023-04-01T12:42:50;2.70;;;0.40;;
13439;SDS011;6792;57.698;11.946;2023-04-01T12:45:31;0.50;;;0.50;;
13439;SDS011;6792;57.698;11.946;2023-04-01T12:48:10;1.90;;;0.60;;
13439;SDS011;6792;57.698;11.946;2023-04-01T12:54:29;2.17;;;0.40;;
13439;SDS011;6792;57.698;11.946;2023-04-01T12:57:21;0.40;;;0.13;;
13439;SDS011;6792;57.698;11.946;2023-04-01T13:03:18;1.70;;;0.43;;
13439;SDS011;6792;57.698;11.946;2023-04-01T13:06:02;0.97;;;0.57;;
13439;SDS011;6792;57.698;11.946;2023-04-01T13:08:53;0.20;;;0.20;;
13439;SDS011;6792;57.698;11.946;2023-04-01T13:11:31;0.57;;;0.27;;
13439;SDS011;6792;57.698;11.946;2023-04-01T13:14:15;1.47;;;0.40;;
13439;SDS011;6792;57.698;11.946;2023-04-01T13:17:01;1.45;;;0.50;;
13439;SDS011;6792;57.698;11.946;2023-04-01T13:19:34;2.20;;;0.40;;
13439;SDS011;6792;57.698;11.946;2023-04-01T13:22:09;1.50;;;0.30;;
13439;SDS011;6792;57.698;11.946;2023-04-01T13:24:45;6.00;;;0.50;;
13439;SDS011;6792;57.698;11.946;2023-04-01T13:27:21;1.45;;;0.40;;
13439;SDS011;6792;57.698;11.946;2023-04-01T13:29:59;2.08;;;0.30;;
13439;SDS011;6792;57.698;11.946;2023-04-01T13:32:34;0.93;;;0.78;;
13439;SDS011;6792;57.698;11.946;2023-04-01T13:35:20;1.35;;;0.37;;
13439;SDS011;6792;57.698;11.946;2023-04-01T13:37:57;0.88;;;0.40;;
13439;SDS011;6792;57.698;11.946;2023-04-01T13:40:33;0.40;;;0.40;;
13439;SDS011;6792;57.698;11.946;2023-04-01T13:43:11;0.50;;;0.40;;
13439;SDS011;6792;57.698;11.946;2023-04-01T13:46:09;2.05;;;0.50;;
13439;SDS011;6792;57.698;11.946;2023-04-01T13:48:54;0.98;;;0.65;;
13439;SDS011;6792;57.698;11.946;2023-04-01T13:51:38;1.35;;;0.80;;
13439;SDS011;6792;57.698;11.946;2023-04-01T13:54:28;0.68;;;0.30;;
13439;SDS011;6792;57.698;11.946;2023-04-01T13:57:16;3.37;;;0.85;;
13439;SDS011;6792;57.698;11.946;2023-04-01T13:59:57;1.05;;;0.60;;
13439;SDS011;6792;57.698;11.946;2023-04-01T14:02:42;1.17;;;0.30;;
13439;SDS011;6792;57.698;11.946;2023-04-01T14:05:33;1.75;;;0.53;;
13439;SDS011;6792;57.698;11.946;2023-04-01T14:08:23;0.62;;;0.62;;
13439;SDS011;6792;57.698;11.946;2023-04-01T14:10:59;3.60;;;0.72;;
13439;SDS011;6792;57.698;11.946;2023-04-01T14:13:40;1.10;;;0.60;;
13439;SDS011;6792;57.698;11.946;2023-04-01T14:16:13;3.37;;;0.45;;
13439;SDS011;6792;57.698;11.946;2023-04-01T14:18:50;0.40;;;0.40;;
13439;SDS011;6792;57.698;11.946;2023-04-01T14:21:39;0.65;;;0.40;;
13439;SDS011;6792;57.698;11.946;2023-04-01T14:27:09;1.25;;;0.50;;
13439;SDS011;6792;57.698;11.946;2023-04-01T14:29:58;1.15;;;0.60;;
13439;SDS011;6792;57.698;11.946;2023-04-01T14:32:48;1.65;;;0.55;;
13439;SDS011;6792;57.698;11.946;2023-04-01T14:35:25;0.75;;;0.35;;
13439;SDS011;6792;57.698;11.946;2023-04-01T14:38:06;0.70;;;0.42;;
13439;SDS011;6792;57.698;11.946;2023-04-01T14:41:00;0.20;;;0.20;;
13439;SDS011;6792;57.698;11.946;2023-04-01T14:49:47;0.78;;;0.53;;
13439;SDS011;6792;57.698;11.946;2023-04-01T14:52:24;0.40;;;0.40;;
13439;SDS011;6792;57.698;11.946;2023-04-01T14:54:56;4.50;;;0.40;;
13439;SDS011;6792;57.698;11.946;2023-04-01T14:57:27;0.33;;;0.20;;
13439;SDS011;6792;57.698;11.946;2023-04-01T15:00:00;0.75;;;0.35;;
13439;SDS011;6792;57.698;11.946;2023-04-01T15:02:42;1.32;;;0.33;;
13439;SDS011;6792;57.698;11.946;2023-04-01T15:05:16;0.37;;;0.20;;
13439;SDS011;6792;57.698;11.946;2023-04-01T15:07:56;1.57;;;0.30;;
13439;SDS011;6792;57.698;11.946;2023-04-01T15:13:56;0.72;;;0.33;;
13439;SDS011;6792;57.698;11.946;2023-04-01T15:16:39;1.55;;;0.47;;
13439;SDS011;6792;57.698;11.946;2023-04-01T15:19:14;0.37;;;0.20;;
13439;SDS011;6792;57.698;11.946;2023-04-01T15:21:56;0.90;;;0.70;;
13439;SDS011;6792;57.698;11.946;2023-04-01T15:24:51;0.67;;;0.30;;
13439;SDS011;6792;57.698;11.946;2023-04-01T15:27:24;0.80;;;0.43;;
13439;SDS011;6792;57.698;11.946;2023-04-01T15:30:12;1.03;;;0.60;;
13439;SDS011;6792;57.698;11.946;2023-04-01T15:33:15;1.70;;;0.33;;
13439;SDS011;6792;57.698;11.946;2023-04-01T15:35:49;0.33;;;0.20;;
13439;SDS011;6792;57.698;11.946;2023-04-01T15:38:30;0.43;;;0.40;;
13439;SDS011;6792;57.698;11.946;2023-04-01T15:41:03;1.50;;;0.40;;
13439;SDS011;6792;57.698;11.946;2023-04-01T15:43:40;1.20;;;0.50;;
13439;SDS011;6792;57.698;11.946;2023-04-01T15:49:22;0.40;;;0.40;;
13439;SDS011;6792;57.698;11.946;2023-04-01T15:52:03;1.60;;;0.50;;
13439;SDS011;6792;57.698;11.946;2023-04-01T15:54:47;2.23;;;0.40;;
13439;SDS011;6792;57.698;11.946;2023-04-01T15:57:29;1.30;;;0.27;;
13439;SDS011;6792;57.698;11.946;2023-04-01T16:00:06;0.43;;;0.30;;
13439;SDS011;6792;57.698;11.946;2023-04-01T16:03:15;2.93;;;0.50;;
13439;SDS011;6792;57.698;11.946;2023-04-01T16:05:52;4.20;;;1.10;;
13439;SDS011;6792;57.698;11.946;2023-04-01T16:11:43;0.83;;;0.50;;
13439;SDS011;6792;57.698;11.946;2023-04-01T16:14:21;1.13;;;0.87;;
13439;SDS011;6792;57.698;11.946;2023-04-01T16:16:58;0.80;;;0.70;;
13439;SDS011;6792;57.698;11.946;2023-04-01T16:19:36;1.17;;;0.77;;
13439;SDS011;6792;57.698;11.946;2023-04-01T16:22:12;1.03;;;0.50;;
13439;SDS011;6792;57.698;11.946;2023-04-01T16:24:46;3.83;;;0.83;;
13439;SDS011;6792;57.698;11.946;2023-04-01T16:27:18;2.43;;;0.63;;
13439;SDS011;6792;57.698;11.946;2023-04-01T16:29:55;0.70;;;0.70;;
13439;SDS011;6792;57.698;11.946;2023-04-01T16:32:35;1.83;;;1.30;;
13439;SDS011;6792;57.698;11.946;2023-04-01T16:35:20;0.63;;;0.60;;
13439;SDS011;6792;57.698;11.946;2023-04-01T16:37:52;0.80;;;0.57;;
13439;SDS011;6792;57.698;11.946;2023-04-01T16:40:25;2.40;;;0.80;;
13439;SDS011;6792;57.698;11.946;2023-04-01T16:43:06;2.50;;;0.93;;
13439;SDS011;6792;57.698;11.946;2023-04-01T16:45:41;0.83;;;0.73;;
13439;SDS011;6792;57.698;11.946;2023-04-01T16:48:15;2.00;;;0.87;;
13439;SDS011;6792;57.698;11.946;2023-04-01T16:50:51;1.10;;;1.00;;
13439;SDS011;6792;57.698;11.946;2023-04-01T16:53:30;0.80;;;0.57;;
13439;SDS011;6792;57.698;11.946;2023-04-01T16:56:04;1.80;;;0.90;;
13439;SDS011;6792;57.698;11.946;2023-04-01T16:58:39;3.10;;;0.60;;
13439;SDS011;6792;57.698;11.946;2023-04-01T17:01:11;2.30;;;0.80;;
13439;SDS011;6792;57.698;11.946;2023-04-01T17:03:42;2.87;;;0.80;;
13439;SDS011;6792;57.698;11.946;2023-04-01T17:06:17;1.33;;;0.80;;
13439;SDS011;6792;57.698;11.946;2023-04-01T17:08:58;2.67;;;0.87;;
13439;SDS011;6792;57.698;11.946;2023-04-01T17:11:33;2.47;;;0.50;;